createdAt,value
2024-05-09T00:00:47.993Z,12.17681885
2024-05-09T00:01:49.056Z,12.11639404
2024-05-09T00:02:50.305Z,12.06604004
2024-05-09T00:03:51.522Z,12.02575684
2024-05-09T00:04:52.666Z,12.00561523
2024-05-09T00:05:53.711Z,11.99554443
2024-05-09T00:06:54.801Z,11.96533203
2024-05-09T00:07:56.212Z,11.96533203
2024-05-09T00:08:57.853Z,11.90490723
2024-05-09T00:10:35.980Z,11.92504883
2024-05-09T00:11:31.058Z,11.92504883
2024-05-09T00:12:32.139Z,11.87469482
2024-05-09T00:13:33.479Z,11.87469482
2024-05-09T00:14:34.793Z,11.84448242
2024-05-09T00:15:36.591Z,11.85455322
2024-05-09T00:16:37.299Z,11.85455322
2024-05-09T00:17:38.973Z,11.85455322
2024-05-09T00:18:39.951Z,11.88476563
2024-05-09T00:19:41.072Z,11.90490723
2024-05-09T00:20:42.207Z,11.93511963
2024-05-09T00:21:43.361Z,11.96533203
2024-05-09T00:22:44.638Z,11.96533203
2024-05-09T00:23:45.803Z,11.95526123
2024-05-09T00:24:46.964Z,11.95526123
2024-05-09T00:25:48.451Z,11.96533203
2024-05-09T00:26:49.635Z,11.99554443
2024-05-09T00:27:50.692Z,11.95526123
2024-05-09T00:28:51.914Z,11.95526123
2024-05-09T00:29:52.854Z,11.92504883
2024-05-09T00:30:54.116Z,11.92504883
2024-05-09T00:31:55.114Z,11.92504883
2024-05-09T00:32:56.177Z,11.95526123
2024-05-09T00:33:57.888Z,11.96533203
2024-05-09T00:35:29.138Z,11.99554443
2024-05-09T00:36:30.029Z,11.97540283
2024-05-09T00:37:30.942Z,11.96533203
2024-05-09T00:38:32.040Z,11.95526123
2024-05-09T00:39:33.056Z,11.90490723
2024-05-09T00:40:39.152Z,11.92504883
2024-05-09T00:41:35.555Z,11.92504883
2024-05-09T00:42:36.535Z,11.93511963
2024-05-09T00:43:37.699Z,11.90490723
2024-05-09T00:44:38.735Z,11.90490723
2024-05-09T00:45:40.205Z,11.88476563
2024-05-09T00:46:41.216Z,11.90490723
2024-05-09T00:47:42.410Z,11.87469482
2024-05-09T00:48:43.714Z,11.88476563
2024-05-09T00:49:44.971Z,11.87469482
2024-05-09T00:50:46.072Z,11.87469482
2024-05-09T00:51:47.200Z,11.87469482
2024-05-09T00:52:48.416Z,11.88476563
2024-05-09T00:53:49.792Z,11.85455322
2024-05-09T00:54:50.990Z,11.87469482
2024-05-09T00:55:52.006Z,11.82434082
2024-05-09T00:56:53.059Z,11.81427002
2024-05-09T00:57:54.350Z,11.78405762
2024-05-09T00:58:55.480Z,11.79412842
2024-05-09T00:59:56.634Z,11.75384521
2024-05-09T01:01:28.602Z,11.74377441
2024-05-09T01:02:29.738Z,11.74377441
2024-05-09T01:03:30.750Z,11.74377441
2024-05-09T01:04:31.851Z,11.69342041
2024-05-09T01:05:33.066Z,11.67327881
2024-05-09T01:06:34.221Z,11.6229248
2024-05-09T01:07:35.210Z,11.5725708
2024-05-09T01:08:36.576Z,11.5423584
2024-05-09T01:09:37.659Z,11.512146
2024-05-09T01:10:39.460Z,11.512146
2024-05-09T01:11:39.938Z,11.48193359
2024-05-09T01:12:41.053Z,11.46179199
2024-05-09T01:13:42.243Z,11.46179199
2024-05-09T01:17:55.002Z,11.48193359
2024-05-09T01:18:55.811Z,11.44165039
2024-05-09T01:19:57.436Z,11.42150879
2024-05-09T01:21:29.371Z,11.41143799
2024-05-09T01:22:30.392Z,11.39129639
2024-05-09T01:23:31.863Z,11.39129639
2024-05-09T01:24:32.831Z,11.39129639
2024-05-09T01:25:33.963Z,11.39129639
2024-05-09T01:26:35.161Z,11.38122559
2024-05-09T01:27:36.244Z,11.36108398
2024-05-09T01:28:37.248Z,11.38122559
2024-05-09T01:29:38.336Z,11.35101318
2024-05-09T01:30:39.778Z,11.35101318
2024-05-09T01:31:40.993Z,11.31072998
2024-05-09T01:32:42.084Z,11.33087158
2024-05-09T01:33:43.192Z,11.33087158
2024-05-09T01:34:44.323Z,11.35101318
2024-05-09T01:35:45.324Z,11.35101318
2024-05-09T01:36:46.453Z,11.35101318
2024-05-09T01:37:47.643Z,11.35101318
2024-05-09T01:38:48.686Z,11.35101318
2024-05-09T01:39:49.625Z,11.33087158
2024-05-09T01:40:50.681Z,11.31072998
2024-05-09T01:41:51.655Z,11.30065918
2024-05-09T01:42:52.632Z,11.28051758
2024-05-09T01:43:53.685Z,11.28051758
2024-05-09T01:44:54.800Z,11.23016357
2024-05-09T01:45:55.750Z,11.19995117
2024-05-09T01:46:57.527Z,11.16973877
2024-05-09T01:48:29.133Z,11.16973877
2024-05-09T01:49:30.032Z,11.18988037
2024-05-09T01:51:32.461Z,11.16973877
2024-05-09T01:52:33.646Z,11.15966797
2024-05-09T01:53:34.990Z,11.15966797
2024-05-09T01:54:35.873Z,11.16973877
2024-05-09T01:55:36.913Z,11.18988037
2024-05-09T01:56:37.977Z,11.16973877
2024-05-09T01:57:39.081Z,11.19995117
2024-05-09T01:58:40.072Z,11.18988037
2024-05-09T01:59:41.179Z,11.16973877
2024-05-09T02:00:43.382Z,11.16973877
2024-05-09T02:01:56.182Z,11.16973877
2024-05-09T02:02:44.115Z,11.18988037
2024-05-09T02:03:45.304Z,11.19995117
2024-05-09T02:04:46.069Z,11.19995117
2024-05-09T02:05:47.862Z,11.19995117
2024-05-09T02:06:47.957Z,11.21002197
2024-05-09T02:07:49.286Z,11.18988037
2024-05-09T02:08:50.331Z,11.24023438
2024-05-09T02:09:51.373Z,11.24023438
2024-05-09T02:10:52.685Z,11.24023438
2024-05-09T02:11:53.746Z,11.26037598
2024-05-09T02:12:54.713Z,11.21002197
2024-05-09T02:13:55.911Z,11.18988037
2024-05-09T02:14:57.301Z,11.18988037
2024-05-09T02:16:28.943Z,11.18988037
2024-05-09T02:17:30.516Z,11.18988037
2024-05-09T02:18:31.682Z,11.21002197
2024-05-09T02:19:33.053Z,11.21002197
2024-05-09T02:20:36.597Z,11.21002197
2024-05-09T02:21:35.019Z,11.24023438
2024-05-09T02:22:36.519Z,11.27044678
2024-05-09T02:23:37.762Z,11.27044678
2024-05-09T02:24:38.568Z,11.27044678
2024-05-09T02:25:39.643Z,11.28051758
2024-05-09T02:26:40.717Z,11.28051758
2024-05-09T02:27:41.648Z,11.31072998
2024-05-09T02:28:42.838Z,11.31072998
2024-05-09T02:29:43.820Z,11.31072998
2024-05-09T02:30:44.905Z,11.31072998
2024-05-09T02:31:46.126Z,11.33087158
2024-05-09T02:32:47.122Z,11.31072998
2024-05-09T02:33:48.276Z,11.28051758
2024-05-09T02:34:49.081Z,11.26037598
2024-05-09T02:35:50.135Z,11.19995117
2024-05-09T02:36:51.172Z,11.19995117
2024-05-09T02:37:52.670Z,11.16973877
2024-05-09T02:38:53.802Z,11.18988037
2024-05-09T02:39:55.063Z,11.16973877
2024-05-09T02:40:56.237Z,11.19995117
2024-05-09T02:42:27.915Z,11.18988037
2024-05-09T02:43:29.209Z,11.21002197
2024-05-09T02:44:30.454Z,11.21002197
2024-05-09T02:45:31.500Z,11.21002197
2024-05-09T02:46:32.618Z,11.23016357
2024-05-09T02:47:33.914Z,11.23016357
2024-05-09T02:48:35.002Z,11.16973877
2024-05-09T02:49:35.975Z,11.12945557
2024-05-09T02:50:39.592Z,11.10931396
2024-05-09T02:51:38.436Z,11.07910156
2024-05-09T02:52:39.502Z,11.07910156
2024-05-09T02:53:40.630Z,11.04888916
2024-05-09T02:54:41.594Z,11.08917236
2024-05-09T02:55:43.345Z,11.07910156
2024-05-09T02:56:43.736Z,11.08917236
2024-05-09T02:57:44.782Z,11.10931396
2024-05-09T02:58:45.781Z,11.10931396
2024-05-09T02:59:46.764Z,11.11938477
2024-05-09T03:00:47.828Z,11.08917236
2024-05-09T03:01:48.984Z,11.07910156
2024-05-09T03:02:50.278Z,11.15966797
2024-05-09T03:03:51.413Z,11.15966797
2024-05-09T03:04:52.230Z,11.11938477
2024-05-09T03:05:53.143Z,11.11938477
2024-05-09T03:06:54.173Z,11.11938477
2024-05-09T03:07:55.238Z,11.07910156
2024-05-09T03:08:56.715Z,11.08917236
2024-05-09T03:10:29.091Z,11.08917236
2024-05-09T03:11:29.349Z,11.16973877
2024-05-09T03:12:30.385Z,11.16973877
2024-05-09T03:13:31.462Z,11.19995117
2024-05-09T03:14:32.578Z,11.19995117
2024-05-09T03:15:33.846Z,11.21002197
2024-05-09T03:16:34.878Z,11.23016357
2024-05-09T03:17:36.311Z,11.21002197
2024-05-09T03:18:37.127Z,11.18988037
2024-05-09T03:19:38.268Z,11.18988037
2024-05-09T03:20:39.763Z,11.21002197
2024-05-09T03:21:40.478Z,11.16973877
2024-05-09T03:22:41.562Z,11.16973877
2024-05-09T03:23:42.805Z,11.18988037
2024-05-09T03:24:43.618Z,11.18988037
2024-05-09T03:25:44.817Z,11.16973877
2024-05-09T03:26:45.818Z,11.16973877
2024-05-09T03:27:46.870Z,11.15966797
2024-05-09T03:28:47.870Z,11.16973877
2024-05-09T03:29:48.881Z,11.19995117
2024-05-09T03:30:49.943Z,11.19995117
2024-05-09T03:31:51.358Z,11.23016357
2024-05-09T03:32:52.236Z,11.23016357
2024-05-09T03:33:53.161Z,11.24023438
2024-05-09T03:34:54.140Z,11.26037598
2024-05-09T03:35:55.054Z,11.24023438
2024-05-09T03:36:56.461Z,11.16973877
2024-05-09T03:38:27.937Z,11.15966797
2024-05-09T03:39:28.902Z,11.12945557
2024-05-09T03:40:31.114Z,11.11938477
2024-05-09T03:41:31.226Z,11.10931396
2024-05-09T03:42:32.551Z,11.12945557
2024-05-09T03:43:33.618Z,11.15966797
2024-05-09T03:44:34.755Z,11.15966797
2024-05-09T03:45:35.691Z,11.19995117
2024-05-09T03:46:36.732Z,11.19995117
2024-05-09T03:47:38.049Z,11.21002197
2024-05-09T03:48:38.921Z,11.21002197
2024-05-09T03:49:39.874Z,11.21002197
2024-05-09T03:50:40.958Z,11.18988037
2024-05-09T03:51:41.780Z,11.19995117
2024-05-09T03:52:42.847Z,11.21002197
2024-05-09T03:53:43.842Z,11.16973877
2024-05-09T03:54:44.753Z,11.19995117
2024-05-09T03:55:45.761Z,11.19995117
2024-05-09T03:56:46.745Z,11.15966797
2024-05-09T03:57:47.575Z,11.19995117
2024-05-09T03:58:48.526Z,11.19995117
2024-05-09T03:59:49.409Z,11.18988037
2024-05-09T04:00:50.435Z,11.15966797
2024-05-09T04:01:51.443Z,11.12945557
2024-05-09T04:02:52.366Z,11.16973877
2024-05-09T04:03:53.568Z,11.12945557
2024-05-09T04:04:54.672Z,11.12945557
2024-05-09T04:05:55.563Z,11.12945557
2024-05-09T04:07:27.144Z,11.15966797
2024-05-09T04:08:28.109Z,11.18988037
2024-05-09T04:09:29.095Z,11.18988037
2024-05-09T04:10:33.571Z,11.24023438
2024-05-09T04:11:31.137Z,11.28051758
2024-05-09T04:12:32.197Z,11.28051758
2024-05-09T04:13:33.100Z,11.33087158
2024-05-09T04:14:34.418Z,11.33087158
2024-05-09T04:15:35.204Z,11.33087158
2024-05-09T04:16:36.162Z,11.36108398
2024-05-09T04:17:37.529Z,11.36108398
2024-05-09T04:18:38.502Z,11.36108398
2024-05-09T04:19:39.590Z,11.36108398
2024-05-09T04:20:41.381Z,11.36108398
2024-05-09T04:21:41.815Z,11.39129639
2024-05-09T04:22:42.877Z,11.41143799
2024-05-09T04:23:44.192Z,11.42150879
2024-05-09T04:24:45.205Z,11.39129639
2024-05-09T04:25:46.397Z,11.42150879
2024-05-09T04:26:47.396Z,11.42150879
2024-05-09T04:27:48.393Z,11.38122559
2024-05-09T04:28:49.554Z,11.35101318
2024-05-09T04:29:50.612Z,11.31072998
2024-05-09T04:30:51.643Z,11.30065918
2024-05-09T04:31:52.761Z,11.30065918
2024-05-09T04:32:54.069Z,11.26037598
2024-05-09T04:33:55.454Z,11.15966797
2024-05-09T04:35:27.306Z,11.15966797
2024-05-09T04:36:28.274Z,11.12945557
2024-05-09T04:37:29.357Z,11.11938477
2024-05-09T04:38:30.516Z,11.10931396
2024-05-09T04:39:31.615Z,11.08917236
2024-05-09T04:40:35.439Z,11.08917236
2024-05-09T04:41:34.057Z,11.05895996
2024-05-09T04:42:35.187Z,11.04888916
2024-05-09T04:43:36.197Z,11.07910156
2024-05-09T04:44:37.279Z,11.05895996
2024-05-09T04:45:38.308Z,11.07910156
2024-05-09T04:46:39.816Z,11.08917236
2024-05-09T04:47:41.191Z,11.10931396
2024-05-09T04:48:42.044Z,11.12945557
2024-05-09T04:49:43.192Z,11.16973877
2024-05-09T04:50:44.506Z,11.15966797
2024-05-09T04:51:45.529Z,11.15966797
2024-05-09T04:52:46.644Z,11.16973877
2024-05-09T04:53:47.691Z,11.16973877
2024-05-09T04:54:48.951Z,11.16973877
2024-05-09T04:55:50.117Z,11.15966797
2024-05-09T04:56:51.065Z,11.12945557
2024-05-09T04:57:52.181Z,11.12945557
2024-05-09T04:58:53.409Z,11.11938477
2024-05-09T04:59:54.772Z,11.18988037
2024-05-09T05:01:26.635Z,11.23016357
2024-05-09T05:02:27.867Z,11.23016357
2024-05-09T05:03:29.652Z,11.26037598
2024-05-09T05:04:30.647Z,11.28051758
2024-05-09T05:05:31.614Z,11.27044678
2024-05-09T05:06:32.826Z,11.27044678
2024-05-09T05:07:34.111Z,11.27044678
2024-05-09T05:08:35.314Z,11.27044678
2024-05-09T05:09:36.209Z,11.27044678
2024-05-09T05:10:37.466Z,11.26037598
2024-05-09T05:11:38.681Z,11.28051758
2024-05-09T05:12:39.705Z,11.28051758
2024-05-09T05:13:41.730Z,11.31072998
2024-05-09T05:14:41.964Z,11.28051758
2024-05-09T05:15:43.040Z,11.28051758
2024-05-09T05:16:44.179Z,11.31072998
2024-05-09T05:17:45.355Z,11.33087158
2024-05-09T05:18:46.155Z,11.35101318
2024-05-09T05:19:47.350Z,11.38122559
2024-05-09T05:20:48.449Z,11.39129639
2024-05-09T05:21:49.286Z,11.41143799
2024-05-09T05:22:50.352Z,11.42150879
2024-05-09T05:23:51.647Z,11.46179199
2024-05-09T05:24:52.714Z,11.49200439
2024-05-09T05:25:54.506Z,11.512146
2024-05-09T05:26:55.060Z,11.5423584
2024-05-09T05:28:26.692Z,11.5725708
2024-05-09T05:29:27.689Z,11.6027832
2024-05-09T05:30:33.031Z,11.63299561
2024-05-09T05:31:29.965Z,11.64306641
2024-05-09T05:32:31.179Z,11.66320801
2024-05-09T05:33:32.351Z,11.67327881
2024-05-09T05:34:33.418Z,11.67327881
2024-05-09T05:35:36.441Z,11.69342041
2024-05-09T05:36:37.437Z,11.70349121
2024-05-09T05:37:38.546Z,11.70349121
2024-05-09T05:38:39.767Z,11.69342041
2024-05-09T05:39:40.699Z,11.69342041
2024-05-09T05:40:41.799Z,11.64306641
2024-05-09T05:41:42.990Z,11.6027832
2024-05-09T05:42:44.013Z,11.6229248
2024-05-09T05:43:44.971Z,11.6229248
2024-05-09T05:44:45.995Z,11.63299561
2024-05-09T05:45:47.110Z,11.63299561
2024-05-09T05:46:48.140Z,11.64306641
2024-05-09T05:47:49.185Z,11.66320801
2024-05-09T05:48:50.329Z,11.70349121
2024-05-09T05:49:51.280Z,11.70349121
2024-05-09T05:50:52.414Z,11.74377441
2024-05-09T05:51:53.257Z,11.82434082
2024-05-09T05:52:54.898Z,11.92504883
2024-05-09T05:54:26.271Z,11.92504883
2024-05-09T05:55:27.226Z,11.97540283
2024-05-09T05:56:28.411Z,12.00561523
2024-05-09T05:57:29.563Z,12.04589844
2024-05-09T05:58:30.715Z,12.07611084
2024-05-09T05:59:31.854Z,12.12646484
2024-05-09T06:00:38.000Z,12.15667725
2024-05-09T06:01:34.092Z,12.12646484
2024-05-09T06:02:35.204Z,12.14660645
2024-05-09T06:03:36.298Z,12.11639404
2024-05-09T06:04:37.289Z,12.07611084
2024-05-09T06:05:38.458Z,12.03582764
2024-05-09T06:06:39.420Z,12.04589844
2024-05-09T06:07:40.452Z,12.06604004
2024-05-09T06:08:41.420Z,12.07611084
2024-05-09T06:09:42.418Z,12.11639404
2024-05-09T06:10:43.784Z,12.15667725
2024-05-09T06:11:45.010Z,12.18688965
2024-05-09T06:12:45.923Z,12.20703125
2024-05-09T06:13:46.968Z,12.25738525
2024-05-09T06:14:47.981Z,12.29766846
2024-05-09T06:15:49.139Z,12.33795166
2024-05-09T06:16:50.168Z,12.39837646
2024-05-09T06:17:51.196Z,12.45880127
2024-05-09T06:18:52.300Z,12.50915527
2024-05-09T06:19:53.618Z,12.53936768
2024-05-09T06:20:56.675Z,12.60986328
2024-05-09T06:22:28.140Z,12.66021729
2024-05-09T06:23:29.376Z,12.69042969
2024-05-09T06:24:30.425Z,12.71057129
2024-05-09T06:25:31.790Z,12.74078369
2024-05-09T06:26:34.921Z,12.74078369
2024-05-09T06:27:35.872Z,12.70050049
2024-05-09T06:28:36.819Z,12.61993408
2024-05-09T06:29:40.148Z,12.53936768
2024-05-09T06:30:42.662Z,12.54943848
2024-05-09T06:31:42.171Z,12.53936768
2024-05-09T06:32:43.263Z,12.50915527
2024-05-09T06:33:44.211Z,12.53936768
2024-05-09T06:34:48.279Z,12.51922607
2024-05-09T06:35:49.026Z,12.48901367
2024-05-09T06:36:49.801Z,12.43865967
2024-05-09T06:37:50.791Z,12.40844727
2024-05-09T06:38:51.693Z,12.42858887
2024-05-09T06:39:52.937Z,12.42858887
2024-05-09T06:40:53.944Z,12.48901367
2024-05-09T06:42:25.372Z,12.50915527
2024-05-09T06:43:26.332Z,12.54943848
2024-05-09T06:44:27.537Z,12.58972168
2024-05-09T06:45:28.275Z,12.63000488
2024-05-09T06:46:29.236Z,12.61993408
2024-05-09T06:47:30.448Z,12.60986328
2024-05-09T06:48:31.666Z,12.58972168
2024-05-09T06:49:32.914Z,12.57965088
2024-05-09T06:50:37.779Z,12.55950928
2024-05-09T06:51:35.251Z,12.53936768
2024-05-09T06:52:36.387Z,12.54943848
2024-05-09T06:53:37.867Z,12.58972168
2024-05-09T06:54:38.592Z,12.60986328
2024-05-09T06:55:39.836Z,12.60986328
2024-05-09T06:56:40.967Z,12.66021729
2024-05-09T06:57:43.231Z,12.69042969
2024-05-09T06:58:43.149Z,12.71057129
2024-05-09T06:59:44.426Z,12.73071289
2024-05-09T07:00:45.465Z,12.76092529
2024-05-09T07:01:46.431Z,12.74078369
2024-05-09T07:02:47.434Z,12.73071289
2024-05-09T07:03:48.793Z,12.73071289
2024-05-09T07:04:49.927Z,12.76092529
2024-05-09T07:05:51.164Z,12.77099609
2024-05-09T07:06:52.183Z,12.8012085
2024-05-09T07:07:53.231Z,12.8515625
2024-05-09T07:09:25.469Z,12.8817749
2024-05-09T07:10:32.969Z,12.8414917
2024-05-09T07:11:28.083Z,12.8414917
2024-05-09T07:12:29.266Z,12.8414917
2024-05-09T07:13:30.414Z,12.8414917
2024-05-09T07:14:32.783Z,12.8414917
2024-05-09T07:15:32.702Z,12.8918457
2024-05-09T07:16:34.006Z,12.8918457
2024-05-09T07:17:35.596Z,12.92205811
2024-05-09T07:18:36.793Z,12.94219971
2024-05-09T07:19:37.799Z,12.96234131
2024-05-09T07:20:38.849Z,12.99255371
2024-05-09T07:21:39.852Z,13.04290771
2024-05-09T07:22:41.004Z,13.06304932
2024-05-09T07:23:45.168Z,13.04290771
2024-05-09T07:24:43.537Z,13.01269531
2024-05-09T07:25:44.673Z,13.03283691
2024-05-09T07:26:45.825Z,12.99255371
2024-05-09T07:27:47.224Z,13.06304932
2024-05-09T07:28:48.269Z,13.10333252
2024-05-09T07:29:49.440Z,13.13354492
2024-05-09T07:30:50.827Z,13.17382813
2024-05-09T07:31:52.077Z,13.21411133
2024-05-09T07:32:53.356Z,13.31481934
2024-05-09T07:34:25.065Z,13.38531494
2024-05-09T07:35:26.365Z,13.43566895
2024-05-09T07:36:27.423Z,13.46588135
2024-05-09T07:37:28.541Z,13.40545654
2024-05-09T07:38:29.848Z,13.42559814
2024-05-09T07:39:30.996Z,13.43566895
2024-05-09T07:40:36.167Z,13.42559814
2024-05-09T07:41:33.691Z,13.45581055
2024-05-09T07:42:34.639Z,13.43566895
2024-05-09T07:43:36.170Z,13.46588135
2024-05-09T07:44:37.417Z,13.45581055
2024-05-09T07:45:48.608Z,13.47595215
2024-05-09T07:47:47.667Z,13.47595215
2024-05-09T07:49:11.974Z,13.46588135
2024-05-09T07:51:32.292Z,13.53637695
2024-05-09T07:53:17.071Z,13.54644775
2024-05-09T07:53:34.601Z,13.53637695
2024-05-09T07:53:51.171Z,13.50616455
2024-05-09T07:54:49.176Z,13.50616455
2024-05-09T07:55:50.212Z,13.49609375
2024-05-09T07:56:51.692Z,13.49609375
2024-05-09T07:57:52.730Z,13.49609375
2024-05-09T07:59:24.720Z,13.50616455
2024-05-09T08:00:31.116Z,13.53637695
2024-05-09T08:01:27.733Z,13.58673096
2024-05-09T08:02:28.895Z,13.56658936
2024-05-09T08:03:29.833Z,13.58673096
2024-05-09T08:04:30.867Z,13.62701416
2024-05-09T08:05:31.996Z,13.65722656
2024-05-09T08:06:33.105Z,13.71765137
2024-05-09T08:07:34.171Z,13.75793457
2024-05-09T08:08:35.414Z,13.79821777
2024-05-09T08:09:38.380Z,13.82843018
2024-05-09T08:10:37.545Z,13.83850098
2024-05-09T08:11:38.569Z,13.85864258
2024-05-09T08:12:39.572Z,13.89892578
2024-05-09T08:13:40.382Z,13.90899658
2024-05-09T08:14:41.430Z,13.92913818
2024-05-09T08:15:42.445Z,13.90899658
2024-05-09T08:16:43.376Z,13.93920898
2024-05-09T08:17:44.523Z,14.00970459
2024-05-09T08:18:45.565Z,14.01977539
2024-05-09T08:19:46.516Z,14.01977539
2024-05-09T08:20:47.598Z,14.01977539
2024-05-09T08:21:48.502Z,13.95935059
2024-05-09T08:22:49.568Z,14.00970459
2024-05-09T08:23:50.554Z,13.93920898
2024-05-09T08:24:51.660Z,13.93920898
2024-05-09T08:25:53.241Z,13.95935059
2024-05-09T08:27:25.004Z,13.98956299
2024-05-09T08:28:26.329Z,13.98956299
2024-05-09T08:29:27.424Z,13.97949219
2024-05-09T08:30:35.827Z,14.00970459
2024-05-09T08:31:29.862Z,14.04998779
2024-05-09T08:32:30.969Z,14.090271
2024-05-09T08:33:32.451Z,14.1607666
2024-05-09T08:34:33.662Z,14.21112061
2024-05-09T08:35:34.954Z,14.21112061
2024-05-09T08:36:35.794Z,14.24133301
2024-05-09T08:37:39.907Z,14.26147461
2024-05-09T08:38:39.862Z,14.26147461
2024-05-09T08:39:41.047Z,14.27154541
2024-05-09T08:40:42.376Z,14.29168701
2024-05-09T08:41:43.274Z,14.27154541
2024-05-09T08:42:44.311Z,14.27154541
2024-05-09T08:43:45.287Z,14.30175781
2024-05-09T08:44:46.406Z,14.30175781
2024-05-09T08:45:47.569Z,14.29168701
2024-05-09T08:46:48.537Z,14.30175781
2024-05-09T08:47:49.563Z,14.26147461
2024-05-09T08:48:50.710Z,14.27154541
2024-05-09T08:49:51.548Z,14.24133301
2024-05-09T08:50:53.096Z,14.190979
2024-05-09T08:52:24.475Z,14.21112061
2024-05-09T08:53:26.076Z,14.24133301
2024-05-09T08:54:27.250Z,14.24133301
2024-05-09T08:55:28.119Z,14.24133301
2024-05-09T08:56:29.053Z,14.26147461
2024-05-09T08:57:30.155Z,14.26147461
2024-05-09T08:58:31.159Z,14.24133301
2024-05-09T08:59:32.120Z,14.23126221
2024-05-09T09:00:37.048Z,14.26147461
2024-05-09T09:01:34.842Z,14.27154541
2024-05-09T09:02:35.979Z,14.29168701
2024-05-09T09:03:36.844Z,14.31182861
2024-05-09T09:04:37.821Z,14.31182861
2024-05-09T09:05:39.530Z,14.35211182
2024-05-09T09:06:40.099Z,14.36218262
2024-05-09T09:07:41.387Z,14.38232422
2024-05-09T09:08:42.462Z,14.36218262
2024-05-09T09:09:43.795Z,14.38232422
2024-05-09T09:10:44.870Z,14.36218262
2024-05-09T09:11:45.891Z,14.44274902
2024-05-09T09:12:46.828Z,14.44274902
2024-05-09T09:13:47.804Z,14.45281982
2024-05-09T09:14:48.919Z,14.46289063
2024-05-09T09:15:50.550Z,14.49310303
2024-05-09T09:16:51.685Z,14.53338623
2024-05-09T09:18:23.538Z,14.54345703
2024-05-09T09:19:24.542Z,14.59381104
2024-05-09T09:20:33.271Z,14.60388184
2024-05-09T09:21:26.551Z,14.61395264
2024-05-09T09:22:27.659Z,14.64416504
2024-05-09T09:23:28.567Z,14.64416504
2024-05-09T09:24:30.064Z,14.67437744
2024-05-09T09:25:31.013Z,14.74487305
2024-05-09T09:26:32.002Z,14.75494385
2024-05-09T09:27:33.342Z,14.79522705
2024-05-09T09:28:34.618Z,14.82543945
2024-05-09T09:29:35.573Z,14.85565186
2024-05-09T09:30:38.071Z,14.85565186
2024-05-09T09:31:37.588Z,14.85565186
2024-05-09T09:32:38.496Z,14.86572266
2024-05-09T09:33:39.582Z,14.89593506
2024-05-09T09:34:40.655Z,14.90600586
2024-05-09T09:35:41.494Z,14.92614746
2024-05-09T09:36:42.469Z,14.94628906
2024-05-09T09:37:43.729Z,14.96643066
2024-05-09T09:38:44.982Z,14.97650146
2024-05-09T09:39:49.097Z,14.97650146
2024-05-09T09:40:49.693Z,14.96643066
2024-05-09T09:41:48.607Z,14.97650146
2024-05-09T09:42:49.786Z,14.96643066
2024-05-09T09:43:50.772Z,14.94628906
2024-05-09T09:45:01.880Z,14.93621826
2024-05-09T09:46:23.937Z,14.92614746
2024-05-09T09:47:25.059Z,14.97650146
2024-05-09T09:48:26.104Z,15.03692627
2024-05-09T09:49:27.100Z,15.10742188
2024-05-09T09:50:34.121Z,15.11749268
2024-05-09T09:51:29.299Z,15.11749268
2024-05-09T09:52:30.423Z,15.12756348
2024-05-09T09:53:31.455Z,15.11749268
2024-05-09T09:54:32.436Z,15.12756348
2024-05-09T09:55:33.653Z,15.14770508
2024-05-09T09:56:35.001Z,15.19805908
2024-05-09T09:57:36.042Z,15.26855469
2024-05-09T09:58:37.103Z,15.29876709
2024-05-09T09:59:38.228Z,15.32897949
2024-05-09T10:00:39.762Z,15.3793335
2024-05-09T10:01:41.053Z,15.3793335
2024-05-09T10:02:41.997Z,15.32897949
2024-05-09T10:03:43.119Z,15.27862549
2024-05-09T10:04:44.197Z,15.18798828
2024-05-09T10:05:47.159Z,15.15777588
2024-05-09T10:06:46.490Z,15.10742188
2024-05-09T10:07:47.522Z,15.03692627
2024-05-09T10:08:48.560Z,15.04699707
2024-05-09T10:09:49.626Z,15.03692627
2024-05-09T10:10:51.043Z,15.08728027
2024-05-09T10:12:22.346Z,15.15777588
2024-05-09T10:13:23.484Z,15.17791748
2024-05-09T10:14:24.621Z,15.19805908
2024-05-09T10:15:25.862Z,15.22827148
2024-05-09T10:16:27.109Z,15.24841309
2024-05-09T10:17:28.377Z,15.27862549
2024-05-09T10:18:31.328Z,15.32897949
2024-05-09T10:19:30.702Z,15.32897949
2024-05-09T10:20:32.855Z,15.3793335
2024-05-09T10:21:33.242Z,15.3692627
2024-05-09T10:22:34.132Z,15.4095459
2024-05-09T10:23:35.226Z,15.4095459
2024-05-09T10:24:36.675Z,15.4095459
2024-05-09T10:25:37.843Z,15.4296875
2024-05-09T10:26:39.169Z,15.4800415
2024-05-09T10:27:40.233Z,15.53039551
2024-05-09T10:28:41.282Z,15.59082031
2024-05-09T10:29:42.635Z,15.68145752
2024-05-09T10:30:44.490Z,15.71166992
2024-05-09T10:31:45.006Z,15.77209473
2024-05-09T10:32:46.124Z,15.80230713
2024-05-09T10:33:47.510Z,15.85266113
2024-05-09T10:34:48.277Z,15.78216553
2024-05-09T10:35:49.392Z,15.77209473
2024-05-09T10:36:50.548Z,15.77209473
2024-05-09T10:37:52.319Z,15.66131592
2024-05-09T10:39:23.701Z,15.64117432
2024-05-09T10:40:30.983Z,15.67138672
2024-05-09T10:41:26.097Z,15.67138672
2024-05-09T10:42:27.247Z,15.68145752
2024-05-09T10:43:28.695Z,15.71166992
2024-05-09T10:44:29.620Z,15.70159912
2024-05-09T10:45:30.772Z,15.68145752
2024-05-09T10:46:31.907Z,15.73181152
2024-05-09T10:47:32.968Z,15.76202393
2024-05-09T10:48:34.380Z,15.84259033
2024-05-09T10:49:35.323Z,15.91308594
2024-05-09T10:50:36.429Z,15.92315674
2024-05-09T10:51:37.285Z,15.95336914
2024-05-09T10:52:38.450Z,16.03393555
2024-05-09T10:53:39.418Z,16.13464355
2024-05-09T10:54:40.724Z,16.17492676
2024-05-09T10:55:41.760Z,16.22528076
2024-05-09T10:56:42.737Z,16.29577637
2024-05-09T10:57:44.051Z,16.29577637
2024-05-09T10:58:45.074Z,16.28570557
2024-05-09T10:59:45.944Z,16.33605957
2024-05-09T11:00:46.973Z,16.39648438
2024-05-09T11:01:48.105Z,16.40655518
2024-05-09T11:02:49.195Z,16.40655518
2024-05-09T11:03:50.445Z,16.40655518
2024-05-09T11:04:51.831Z,16.39648438
2024-05-09T11:06:23.448Z,16.39648438
2024-05-09T11:07:24.699Z,16.40655518
2024-05-09T11:08:25.763Z,16.40655518
2024-05-09T11:09:26.893Z,16.36627197
2024-05-09T11:10:33.692Z,16.36627197
2024-05-09T11:11:28.926Z,16.35620117
2024-05-09T11:12:29.923Z,16.39648438
2024-05-09T11:13:31.510Z,16.40655518
2024-05-09T11:14:32.254Z,16.39648438
2024-05-09T11:15:33.382Z,16.43676758
2024-05-09T11:16:34.558Z,16.46697998
2024-05-09T11:17:35.676Z,16.50726318
2024-05-09T11:18:39.081Z,16.56768799
2024-05-09T11:19:37.698Z,16.64825439
2024-05-09T11:20:39.048Z,16.7288208